createdAt,value
2023-05-06T00:00:30.002Z,60.41
2023-05-06T00:03:00.290Z,60.48
2023-05-06T00:05:28.313Z,60.32
2023-05-06T00:07:56.245Z,60.41
2023-05-06T00:10:24.146Z,60.33
2023-05-06T00:12:52.023Z,60.55
2023-05-06T00:15:19.924Z,60.55
2023-05-06T00:17:47.897Z,60.25
2023-05-06T00:20:17.198Z,60.35
2023-05-06T00:22:45.126Z,60.26
2023-05-06T00:25:13.082Z,60.54
2023-05-06T00:27:40.896Z,60.13
2023-05-06T00:30:10.294Z,60.31
2023-05-06T00:32:38.192Z,60.20
2023-05-06T00:35:07.169Z,60.41
2023-05-06T00:37:36.588Z,60.46
2023-05-06T00:40:05.634Z,60.46
2023-05-06T00:42:33.976Z,60.21
2023-05-06T00:45:01.837Z,60.35
2023-05-06T00:47:29.888Z,60.15
2023-05-06T00:49:57.788Z,60.31
2023-05-06T00:52:26.204Z,60.25
2023-05-06T00:54:55.485Z,60.06
2023-05-06T00:57:23.509Z,60.06
2023-05-06T00:59:51.734Z,60.26
2023-05-06T01:02:19.705Z,60.50
2023-05-06T01:04:47.612Z,60.17
2023-05-06T01:07:21.440Z,60.41
2023-05-06T01:09:52.313Z,60.42
2023-05-06T01:12:24.389Z,60.36
2023-05-06T01:14:57.095Z,60.37
2023-05-06T01:17:26.011Z,60.16
2023-05-06T01:19:54.303Z,60.57
2023-05-06T01:22:22.160Z,60.40
2023-05-06T01:24:51.431Z,60.59
2023-05-06T01:27:19.312Z,60.43
2023-05-06T01:29:48.005Z,60.67
2023-05-06T01:32:27.365Z,60.51
2023-05-06T01:34:58.035Z,60.38
2023-05-06T01:37:29.225Z,60.89
2023-05-06T01:39:59.877Z,61.04
2023-05-06T01:42:28.100Z,60.99
2023-05-06T01:44:56.488Z,61.13
2023-05-06T01:47:24.584Z,61.17
2023-05-06T01:49:52.542Z,61.10
2023-05-06T01:52:22.143Z,61.12
2023-05-06T01:54:50.014Z,60.91
2023-05-06T01:57:19.210Z,61.12
2023-05-06T01:59:47.073Z,61.18
2023-05-06T02:02:15.093Z,61.36
2023-05-06T02:04:42.967Z,61.47
2023-05-06T02:07:10.823Z,61.63
2023-05-06T02:09:38.762Z,61.67
2023-05-06T02:12:06.845Z,61.82
2023-05-06T02:14:36.123Z,61.93
2023-05-06T02:17:07.088Z,61.80
2023-05-06T02:19:35.708Z,61.50
2023-05-06T02:22:03.779Z,61.45
2023-05-06T02:24:31.621Z,61.61
2023-05-06T02:26:59.536Z,61.97
2023-05-06T02:29:27.431Z,61.83
2023-05-06T02:31:57.071Z,61.89
2023-05-06T02:34:25.024Z,62.04
2023-05-06T02:36:52.927Z,61.69
2023-05-06T02:39:20.764Z,61.71
2023-05-06T02:41:48.621Z,61.88
2023-05-06T02:44:16.500Z,61.66
2023-05-06T02:46:45.637Z,61.81
2023-05-06T02:49:14.929Z,61.99
2023-05-06T02:51:42.902Z,62.45
2023-05-06T02:54:11.115Z,62.89
2023-05-06T02:56:38.995Z,62.78
2023-05-06T02:59:06.937Z,63.47
2023-05-06T03:01:34.920Z,63.12
2023-05-06T03:04:03.690Z,63.51
2023-05-06T03:06:33.081Z,63.20
2023-05-06T03:09:01.016Z,63.46
2023-05-06T03:11:31.452Z,63.40
2023-05-06T03:13:59.437Z,63.38
2023-05-06T03:16:27.622Z,63.04
2023-05-06T03:18:55.529Z,63.08
2023-05-06T03:21:23.559Z,63.16
2023-05-06T03:23:52.854Z,62.97
2023-05-06T03:26:21.320Z,62.98
2023-05-06T03:28:49.211Z,63.29
2023-05-06T03:31:17.138Z,63.62
2023-05-06T03:33:45.072Z,63.51
2023-05-06T03:36:14.157Z,63.66
2023-05-06T03:38:42.333Z,63.73
2023-05-06T03:41:11.557Z,63.66
2023-05-06T03:43:39.687Z,63.60
2023-05-06T03:46:08.114Z,63.37
2023-05-06T03:48:36.114Z,63.87
2023-05-06T03:51:04.238Z,63.69
2023-05-06T03:53:32.132Z,63.60
2023-05-06T03:56:01.804Z,63.49
2023-05-06T03:58:31.119Z,63.57
2023-05-06T04:01:00.953Z,63.94
2023-05-06T04:03:29.014Z,63.92
2023-05-06T04:05:57.076Z,63.73
2023-05-06T04:08:24.970Z,63.84
2023-05-06T04:10:53.014Z,64.13
2023-05-06T04:13:21.080Z,63.81
2023-05-06T04:15:51.188Z,64.05
2023-05-06T04:18:20.045Z,63.87
2023-05-06T04:20:49.047Z,63.86
2023-05-06T04:23:17.293Z,64.05
2023-05-06T04:25:48.758Z,63.81
2023-05-06T04:28:17.784Z,64.23
2023-05-06T04:30:45.811Z,63.96
2023-05-06T04:33:15.183Z,64.24
2023-05-06T04:35:51.227Z,64.25
2023-05-06T04:38:19.373Z,64.09
2023-05-06T04:40:47.233Z,63.94
2023-05-06T04:43:15.268Z,64.07
2023-05-06T04:45:49.531Z,64.21
2023-05-06T04:48:20.061Z,64.30
2023-05-06T04:50:48.004Z,64.63
2023-05-06T04:53:16.181Z,64.29
2023-05-06T04:55:44.179Z,64.45
2023-05-06T04:58:12.102Z,64.25
2023-05-06T05:00:40.272Z,64.67
2023-05-06T05:03:08.306Z,64.71
2023-05-06T05:05:37.684Z,64.38
2023-05-06T05:08:05.877Z,64.22
2023-05-06T05:10:33.796Z,64.30
2023-05-06T05:13:01.723Z,64.61
2023-05-06T05:15:29.588Z,64.56
2023-05-06T05:17:57.552Z,64.87
2023-05-06T05:20:25.525Z,64.76
2023-05-06T05:22:54.995Z,64.58
2023-05-06T05:25:22.881Z,64.88
2023-05-06T05:27:50.791Z,64.85
2023-05-06T05:30:18.829Z,65.13
2023-05-06T05:32:46.742Z,65.17
2023-05-06T05:35:14.800Z,65.39
2023-05-06T05:37:42.632Z,65.15
2023-05-06T05:40:12.723Z,65.04
2023-05-06T05:42:40.920Z,65.11
2023-05-06T05:45:09.986Z,65.42
2023-05-06T05:47:37.971Z,65.34
2023-05-06T05:50:06.606Z,65.54
2023-05-06T05:52:35.001Z,65.29
2023-05-06T05:55:02.872Z,65.51
2023-05-06T05:57:32.428Z,65.29
2023-05-06T06:00:00.434Z,65.38
2023-05-06T06:02:28.372Z,65.50
2023-05-06T06:04:56.370Z,65.69
2023-05-06T06:07:24.360Z,65.57
2023-05-06T06:09:52.224Z,65.82
2023-05-06T06:12:20.109Z,65.76
2023-05-06T06:14:49.379Z,65.42
2023-05-06T06:17:17.455Z,65.53
2023-05-06T06:19:46.408Z,65.43
2023-05-06T06:22:14.274Z,65.55
2023-05-06T06:24:42.222Z,65.55
2023-05-06T06:27:10.114Z,65.54
2023-05-06T06:29:37.982Z,65.46
2023-05-06T06:32:07.822Z,65.94
2023-05-06T06:34:35.784Z,65.69
2023-05-06T06:37:03.685Z,65.75
2023-05-06T06:39:31.681Z,65.71
2023-05-06T06:41:59.587Z,65.75
2023-05-06T06:44:27.500Z,65.57
2023-05-06T06:46:55.419Z,65.91
2023-05-06T06:49:24.684Z,65.33
2023-05-06T06:51:52.620Z,65.41
2023-05-06T06:54:20.476Z,65.67
2023-05-06T06:56:48.505Z,65.52
2023-05-06T06:59:16.415Z,65.63
2023-05-06T07:01:44.430Z,65.76
2023-05-06T07:04:12.401Z,65.58
2023-05-06T07:06:41.709Z,65.22
2023-05-06T07:09:09.709Z,65.67
2023-05-06T07:11:37.561Z,65.65
2023-05-06T07:14:05.423Z,65.63
2023-05-06T07:16:33.492Z,65.24
2023-05-06T07:19:01.576Z,65.11
2023-05-06T07:21:32.274Z,64.86
2023-05-06T07:24:01.596Z,65.10
2023-05-06T07:26:29.484Z,64.92
2023-05-06T07:28:57.344Z,64.86
2023-05-06T07:31:25.350Z,64.91
2023-05-06T07:33:53.246Z,65.17
2023-05-06T07:36:21.116Z,64.93
2023-05-06T07:38:49.020Z,65.21
2023-05-06T07:41:18.229Z,65.03
2023-05-06T07:43:46.376Z,65.02
2023-05-06T07:46:14.430Z,64.99
2023-05-06T07:48:42.334Z,64.92
2023-05-06T07:51:10.210Z,64.96
2023-05-06T07:53:40.162Z,64.97
2023-05-06T07:56:08.190Z,65.19
2023-05-06T07:58:37.624Z,65.06
2023-05-06T08:01:06.215Z,65.02
2023-05-06T08:03:35.035Z,64.87
2023-05-06T08:06:03.250Z,64.97
2023-05-06T08:08:31.218Z,64.57
2023-05-06T08:10:59.345Z,64.97
2023-05-06T08:13:28.159Z,65.04
2023-05-06T08:15:57.487Z,64.90
2023-05-06T08:18:25.486Z,64.75
2023-05-06T08:20:53.374Z,65.04
2023-05-06T08:23:21.489Z,64.84
2023-05-06T08:25:49.410Z,65.25
2023-05-06T08:28:17.329Z,64.79
2023-05-06T08:30:47.845Z,64.90
2023-05-06T08:33:17.141Z,64.75
2023-05-06T08:35:45.559Z,65.08
2023-05-06T08:38:13.547Z,64.83
2023-05-06T08:40:43.581Z,64.85
2023-05-06T08:43:13.820Z,65.22
2023-05-06T08:45:42.130Z,65.06
2023-05-06T08:48:10.580Z,65.16
2023-05-06T08:50:42.612Z,64.82
2023-05-06T08:53:13.829Z,64.68
2023-05-06T08:55:42.167Z,65.16
2023-05-06T08:58:10.302Z,65.07
2023-05-06T09:00:38.373Z,64.71
2023-05-06T09:03:06.557Z,64.67
2023-05-06T09:05:34.680Z,64.65
2023-05-06T09:08:04.155Z,64.27
2023-05-06T09:10:39.743Z,64.19
2023-05-06T09:13:08.001Z,64.37
2023-05-06T09:15:41.281Z,64.32
2023-05-06T09:18:09.544Z,64.35
2023-05-06T09:20:37.547Z,63.89
2023-05-06T09:23:08.479Z,63.82
2023-05-06T09:25:37.312Z,63.90
2023-05-06T09:28:05.488Z,63.78
2023-05-06T09:30:33.444Z,63.48
2023-05-06T09:33:04.886Z,63.59
2023-05-06T09:35:38.003Z,63.47
2023-05-06T09:38:07.577Z,63.12
2023-05-06T09:40:35.961Z,63.00
2023-05-06T09:43:04.102Z,62.67
2023-05-06T09:45:32.856Z,62.30
2023-05-06T09:48:01.788Z,62.04
2023-05-06T09:50:29.898Z,61.79
2023-05-06T09:52:57.920Z,61.71
2023-05-06T09:55:27.592Z,61.52
2023-05-06T09:57:55.645Z,61.43
2023-05-06T10:00:28.023Z,61.93
2023-05-06T10:02:56.402Z,61.78
2023-05-06T10:05:24.430Z,61.96
2023-05-06T10:07:52.396Z,62.01
2023-05-06T10:10:20.664Z,61.84
2023-05-06T10:12:50.059Z,61.60
2023-05-06T10:15:18.340Z,61.60
2023-05-06T10:17:48.175Z,61.65
2023-05-06T10:20:16.421Z,61.76
2023-05-06T10:22:53.686Z,61.61
2023-05-06T10:25:25.637Z,61.31
2023-05-06T10:27:55.240Z,60.89
2023-05-06T10:30:23.780Z,60.41
2023-05-06T10:32:51.781Z,60.42
2023-05-06T10:35:23.792Z,60.13
2023-05-06T10:37:51.892Z,59.88
2023-05-06T10:40:20.598Z,59.86
2023-05-06T10:42:48.624Z,60.04
2023-05-06T10:45:17.847Z,60.24
2023-05-06T10:48:10.744Z,60.47
2023-05-06T10:50:38.986Z,60.31
2023-05-06T10:53:06.832Z,60.58
2023-05-06T10:55:35.281Z,60.63
2023-05-06T10:58:04.420Z,60.91
2023-05-06T11:00:34.444Z,60.83
2023-05-06T11:03:03.174Z,60.98
2023-05-06T11:05:31.703Z,61.01
2023-05-06T11:08:10.534Z,60.49
2023-05-06T11:10:38.516Z,60.51
2023-05-06T11:13:26.321Z,60.96
2023-05-06T11:15:56.020Z,60.61
2023-05-06T11:18:45.662Z,60.42
2023-05-06T11:21:41.679Z,59.16
2023-05-06T11:24:13.119Z,58.28
2023-05-06T11:26:44.346Z,58.01
2023-05-06T11:29:12.333Z,57.87
2023-05-06T11:31:42.957Z,57.52
2023-05-06T11:34:12.867Z,56.97
2023-05-06T11:36:47.779Z,56.93
2023-05-06T11:39:15.794Z,56.39
2023-05-06T11:41:43.624Z,55.80
2023-05-06T11:44:12.684Z,54.87
2023-05-06T11:46:41.955Z,53.50
2023-05-06T11:49:14.567Z,53.57
2023-05-06T11:51:42.664Z,54.93
2023-05-06T11:54:11.040Z,54.17
2023-05-06T11:56:46.474Z,53.29
2023-05-06T11:59:14.411Z,54.67
2023-05-06T12:01:44.691Z,53.83
2023-05-06T12:04:13.264Z,53.94
2023-05-06T12:06:41.617Z,52.72
2023-05-06T12:09:12.118Z,52.10
2023-05-06T12:11:40.670Z,51.31
2023-05-06T12:14:10.158Z,49.99
2023-05-06T12:16:38.126Z,50.14
2023-05-06T12:19:07.571Z,49.60
2023-05-06T12:21:38.848Z,49.21
2023-05-06T12:24:07.593Z,48.28
2023-05-06T12:26:46.612Z,48.44
2023-05-06T12:29:17.195Z,47.88
2023-05-06T12:31:47.224Z,46.57
2023-05-06T12:34:18.479Z,47.41
2023-05-06T12:36:47.959Z,47.65
2023-05-06T12:39:17.689Z,47.30
2023-05-06T12:41:46.365Z,47.04
2023-05-06T12:44:34.080Z,46.85
2023-05-06T12:47:03.348Z,46.40
2023-05-06T12:52:25.180Z,45.61
2023-05-06T12:54:53.389Z,45.60
2023-05-06T12:57:21.492Z,44.80
2023-05-06T12:59:49.960Z,45.67
2023-05-06T13:02:18.130Z,45.50
2023-05-06T13:04:47.227Z,45.72
2023-05-06T13:07:15.135Z,46.07
2023-05-06T13:09:45.056Z,45.35
2023-05-06T13:12:13.411Z,45.20
2023-05-06T13:14:41.673Z,44.05
2023-05-06T13:17:09.971Z,44.36
2023-05-06T13:19:38.191Z,43.31
2023-05-06T13:22:08.929Z,42.43
2023-05-06T13:24:37.421Z,42.11
2023-05-06T13:27:07.399Z,42.45
2023-05-06T13:29:35.291Z,42.76
2023-05-06T13:32:05.744Z,43.05
2023-05-06T13:34:35.142Z,43.64
2023-05-06T13:37:03.188Z,43.05
2023-05-06T13:39:31.322Z,43.58
2023-05-06T13:41:59.379Z,43.22
2023-05-06T13:44:28.818Z,42.78
2023-05-06T13:46:56.876Z,42.53
2023-05-06T13:49:24.955Z,42.22
2023-05-06T13:51:53.814Z,42.13
2023-05-06T13:54:22.115Z,41.73
2023-05-06T13:56:50.409Z,41.75
2023-05-06T13:59:18.415Z,41.71
2023-05-06T14:01:49.642Z,41.18
2023-05-06T14:04:18.140Z,40.50
2023-05-06T14:06:46.151Z,40.11
2023-05-06T14:09:14.094Z,40.34
2023-05-06T14:11:42.423Z,40.45
2023-05-06T14:14:10.512Z,39.75
2023-05-06T14:16:38.554Z,39.98
2023-05-06T14:19:08.104Z,40.14
2023-05-06T14:21:36.319Z,40.55
2023-05-06T14:24:07.346Z,40.45
2023-05-06T14:26:35.867Z,40.59
2023-05-06T14:29:03.839Z,40.43
2023-05-06T14:31:31.896Z,40.70
2023-05-06T14:33:59.869Z,41.33
2023-05-06T14:36:29.156Z,41.59
2023-05-06T14:38:57.039Z,41.45
2023-05-06T14:41:24.895Z,41.24
2023-05-06T14:43:52.933Z,40.47
2023-05-06T14:46:21.264Z,40.10
2023-05-06T14:48:49.176Z,40.29
2023-05-06T14:51:17.101Z,40.60
2023-05-06T14:53:46.743Z,40.20
2023-05-06T14:56:14.766Z,40.16
2023-05-06T14:58:42.875Z,40.14
2023-05-06T15:01:11.133Z,40.48
2023-05-06T15:03:39.183Z,39.92
2023-05-06T15:06:07.529Z,39.71
2023-05-06T15:08:36.371Z,39.75
2023-05-06T15:11:06.183Z,40.08
2023-05-06T15:13:34.292Z,40.67
2023-05-06T15:16:02.376Z,41.59
2023-05-06T15:18:30.408Z,42.48
2023-05-06T15:21:01.534Z,43.22
2023-05-06T15:23:29.647Z,43.95
2023-05-06T15:25:58.142Z,44.66
2023-05-06T15:28:27.571Z,45.18
2023-05-06T15:30:55.769Z,45.99
2023-05-06T15:33:23.864Z,46.26
2023-05-06T15:35:51.819Z,46.73
2023-05-06T15:38:19.659Z,47.06
2023-05-06T15:40:50.526Z,47.41
2023-05-06T15:43:23.823Z,47.73
2023-05-06T15:45:53.718Z,47.87
2023-05-06T15:48:21.801Z,47.89
2023-05-06T15:50:49.990Z,48.02
2023-05-06T15:53:19.799Z,48.24
2023-05-06T15:55:56.703Z,48.38
2023-05-06T15:58:26.186Z,48.84
2023-05-06T16:00:55.790Z,49.03
2023-05-06T16:03:23.810Z,49.05
2023-05-06T16:05:53.960Z,49.42
2023-05-06T16:08:21.928Z,49.52
2023-05-06T16:10:49.872Z,49.83
2023-05-06T16:13:18.042Z,50.04
2023-05-06T16:15:46.258Z,50.40
2023-05-06T16:18:15.891Z,50.57
2023-05-06T16:20:43.985Z,50.52
2023-05-06T16:23:13.588Z,50.72
2023-05-06T16:25:41.608Z,50.94
2023-05-06T16:28:10.029Z,51.09
2023-05-06T16:30:38.054Z,51.03
2023-05-06T16:33:06.395Z,51.34
2023-05-06T16:35:36.305Z,51.52
2023-05-06T16:38:04.340Z,51.48
2023-05-06T16:40:32.717Z,51.63
2023-05-06T16:43:01.221Z,51.58
2023-05-06T16:45:29.250Z,51.79
2023-05-06T16:47:57.333Z,51.89
2023-05-06T16:50:25.641Z,52.02
2023-05-06T16:52:55.377Z,52.37
2023-05-06T16:55:23.596Z,52.36
2023-05-06T16:57:51.531Z,52.38
2023-05-06T17:00:21.052Z,52.45
2023-05-06T17:02:48.957Z,52.34
2023-05-06T17:05:17.355Z,52.59
2023-05-06T17:07:45.838Z,52.58
2023-05-06T17:10:15.072Z,52.67
2023-05-06T17:12:43.297Z,52.93
2023-05-06T17:15:11.960Z,53.08
2023-05-06T17:17:40.784Z,52.93
2023-05-06T17:20:10.274Z,52.90
2023-05-06T17:22:38.346Z,52.80
2023-05-06T17:25:06.935Z,53.03
2023-05-06T17:27:36.248Z,52.94
2023-05-06T17:30:04.693Z,53.19
2023-05-06T17:32:32.698Z,52.90
2023-05-06T17:35:01.300Z,52.90
2023-05-06T17:37:29.565Z,53.22
2023-05-06T17:39:57.608Z,52.97
2023-05-06T17:42:27.465Z,53.09
2023-05-06T17:44:56.945Z,53.21
2023-05-06T17:47:24.931Z,53.35
2023-05-06T17:49:53.690Z,53.20
2023-05-06T17:52:21.938Z,53.35
2023-05-06T17:55:05.662Z,53.36
2023-05-06T17:57:38.037Z,53.28
2023-05-06T18:00:09.757Z,53.20
2023-05-06T18:02:37.895Z,52.79
2023-05-06T18:05:07.078Z,52.72
2023-05-06T18:07:36.083Z,52.98
2023-05-06T18:10:04.059Z,52.85
2023-05-06T18:12:31.922Z,52.83
2023-05-06T18:15:00.724Z,52.92
2023-05-06T18:17:30.205Z,52.89
2023-05-06T18:19:58.356Z,52.97
2023-05-06T18:22:26.264Z,53.59
2023-05-06T18:24:55.457Z,53.35
2023-05-06T18:27:23.575Z,53.62
2023-05-06T18:29:51.568Z,53.77
2023-05-06T18:32:19.651Z,53.97
2023-05-06T18:34:49.273Z,53.58
2023-05-06T18:37:17.329Z,54.10
2023-05-06T18:39:45.516Z,53.81
2023-05-06T18:42:13.847Z,54.05
2023-05-06T18:44:42.894Z,54.10
2023-05-06T18:47:11.235Z,54.07
2023-05-06T18:49:39.294Z,53.95
2023-05-06T18:52:08.728Z,54.19
2023-05-06T18:54:36.764Z,53.99
2023-05-06T18:57:04.884Z,54.04
2023-05-06T18:59:33.657Z,54.12
2023-05-06T19:02:03.866Z,54.42
2023-05-06T19:04:32.799Z,54.37
2023-05-06T19:07:01.178Z,54.27
2023-05-06T19:09:32.922Z,54.50
2023-05-06T19:12:00.937Z,54.88
2023-05-06T19:14:29.012Z,54.96
2023-05-06T19:16:57.078Z,54.62
2023-05-06T19:19:25.018Z,54.79
2023-05-06T19:21:53.175Z,54.79
2023-05-06T19:24:21.412Z,55.06
2023-05-06T19:26:51.055Z,54.75
2023-05-06T19:29:22.666Z,54.82
2023-05-06T19:31:50.799Z,55.05
2023-05-06T19:34:18.651Z,55.06
2023-05-06T19:36:46.526Z,54.90
2023-05-06T19:39:14.415Z,54.92
2023-05-06T19:41:42.425Z,55.28
2023-05-06T19:44:11.712Z,55.33
2023-05-06T19:46:39.679Z,55.28
2023-05-06T19:51:42.992Z,55.92
2023-05-06T19:54:11.119Z,55.85
2023-05-06T19:56:39.190Z,56.07
2023-05-06T19:59:07.113Z,55.70
2023-05-06T20:01:36.409Z,56.15
2023-05-06T20:04:04.489Z,56.23
2023-05-06T20:06:33.164Z,56.13
2023-05-06T20:09:01.129Z,56.28
2023-05-06T20:11:29.148Z,56.60
2023-05-06T20:13:57.035Z,56.53
2023-05-06T20:16:24.984Z,56.64
2023-05-06T20:18:55.528Z,56.86
2023-05-06T20:21:23.436Z,56.94
2023-05-06T20:23:51.653Z,56.94
2023-05-06T20:26:21.006Z,56.56
2023-05-06T20:28:49.742Z,56.63
2023-05-06T20:31:17.663Z,56.68
2023-05-06T20:33:46.053Z,56.77
2023-05-06T20:36:15.988Z,57.03
2023-05-06T20:38:43.882Z,56.87
2023-05-06T20:41:11.762Z,57.00
2023-05-06T20:43:40.304Z,56.97
2023-05-06T20:46:08.203Z,56.78
2023-05-06T20:48:36.189Z,57.15
2023-05-06T20:51:04.204Z,56.96
2023-05-06T20:53:33.915Z,57.42
2023-05-06T20:56:01.795Z,57.10
2023-05-06T20:58:29.669Z,57.58
2023-05-06T21:00:57.695Z,57.18
2023-05-06T21:03:26.561Z,57.53
2023-05-06T21:05:54.492Z,57.28
2023-05-06T21:08:22.427Z,57.23
2023-05-06T21:10:51.779Z,57.69
2023-05-06T21:13:19.787Z,57.73
2023-05-06T21:15:47.846Z,57.66
2023-05-06T21:18:16.596Z,57.37
2023-05-06T21:20:44.700Z,57.73
2023-05-06T21:23:12.590Z,57.34
2023-05-06T21:25:40.456Z,57.53
2023-05-06T21:28:09.756Z,57.27
2023-05-06T21:30:37.848Z,57.35
2023-05-06T21:33:11.271Z,57.68
2023-05-06T21:35:39.356Z,57.28
2023-05-06T21:38:07.993Z,57.42
2023-05-06T21:40:35.879Z,57.49
2023-05-06T21:43:03.981Z,57.12
2023-05-06T21:45:33.219Z,57.50
2023-05-06T21:48:01.218Z,57.51
2023-05-06T21:50:29.763Z,57.26
2023-05-06T21:52:58.002Z,57.17
2023-05-06T21:55:27.742Z,57.32
2023-05-06T21:57:55.619Z,57.25
2023-05-06T22:00:23.490Z,57.52
2023-05-06T22:02:53.580Z,57.31
2023-05-06T22:05:21.611Z,57.16
2023-05-06T22:07:49.552Z,57.11
2023-05-06T22:10:17.416Z,57.03
2023-05-06T22:12:45.284Z,57.20
2023-05-06T22:15:14.695Z,57.04
2023-05-06T22:17:42.576Z,56.96
2023-05-06T22:20:12.615Z,57.38
2023-05-06T22:22:40.725Z,57.30
2023-05-06T22:25:09.448Z,57.46
2023-05-06T22:27:37.595Z,57.52
2023-05-06T22:30:06.010Z,57.21
2023-05-06T22:32:33.988Z,57.48
2023-05-06T22:35:01.897Z,57.58
2023-05-06T22:37:32.016Z,57.29
2023-05-06T22:39:59.866Z,57.44
2023-05-06T22:42:27.810Z,57.19
2023-05-06T22:44:55.657Z,57.62
2023-05-06T22:47:23.526Z,57.38
2023-05-06T22:49:51.474Z,57.56
2023-05-06T22:52:20.261Z,57.19
2023-05-06T22:54:49.512Z,57.31
2023-05-06T22:57:19.182Z,57.54
2023-05-06T22:59:47.288Z,57.65
2023-05-06T23:02:15.137Z,57.70
2023-05-06T23:04:43.064Z,57.52
2023-05-06T23:07:10.991Z,57.40
2023-05-06T23:09:38.910Z,57.57
2023-05-06T23:12:08.343Z,57.66
2023-05-06T23:14:36.184Z,57.66
2023-05-06T23:17:04.075Z,57.69
2023-05-06T23:19:32.402Z,57.63
2023-05-06T23:22:00.461Z,57.58
2023-05-06T23:24:28.315Z,57.60
2023-05-06T23:26:56.213Z,57.67
2023-05-06T23:29:25.478Z,57.79
2023-05-06T23:31:53.330Z,57.90
2023-05-06T23:34:21.214Z,58.09
2023-05-06T23:36:49.057Z,57.76
2023-05-06T23:39:17.584Z,57.90
2023-05-06T23:41:45.521Z,58.18
2023-05-06T23:44:13.364Z,57.79
2023-05-06T23:46:42.646Z,57.86
2023-05-06T23:49:10.689Z,58.03
2023-05-06T23:51:38.576Z,57.85
2023-05-06T23:54:06.515Z,58.12
2023-05-06T23:56:34.799Z,57.99
2023-05-06T23:59:02.688Z,58.20
